Terminal Aerodrome Forecast
Issued by NWS

Home | Current Version | Previous Version | Text Only | Print | Product List | Glossary On
Versions: 1 2 3 4 5 6 7 8 9 10 11 12 13 14 15 16 17 18 19
010
FTUS43 KAPX 051130
TAFMBL
TAF
KMBL 051130Z 0512/0612 26013G20KT P6SM OVC019
     FM051600 26009KT P6SM BKN028
     FM051800 23007KT P6SM BKN035
     FM052100 20007KT P6SM BKN030
     FM060200 16006KT P6SM OVC060=

USA.gov is the U.S. government's official web portal to all federal, state and local government web resources and services.